sensor_id;sensor_type;location;lat;lon;timestamp;P1;durP1;ratioP1;P2;durP2;ratioP2
72771;SDS011;60894;42.544;1.516;2023-07-13T00:01:28;7.03;;;2.85;;
72771;SDS011;60894;42.544;1.516;2023-07-13T00:03:56;7.32;;;2.97;;
72771;SDS011;60894;42.544;1.516;2023-07-13T00:06:23;7.57;;;3.05;;
72771;SDS011;60894;42.544;1.516;2023-07-13T00:08:50;7.80;;;2.95;;
72771;SDS011;60894;42.544;1.516;2023-07-13T00:11:18;8.60;;;2.90;;
72771;SDS011;60894;42.544;1.516;2023-07-13T00:13:44;6.47;;;2.50;;
72771;SDS011;60894;42.544;1.516;2023-07-13T00:16:11;9.00;;;3.22;;
72771;SDS011;60894;42.544;1.516;2023-07-13T00:18:41;7.95;;;3.50;;
72771;SDS011;60894;42.544;1.516;2023-07-13T00:21:08;6.82;;;2.92;;
72771;SDS011;60894;42.544;1.516;2023-07-13T00:23:35;7.53;;;3.00;;
72771;SDS011;60894;42.544;1.516;2023-07-13T00:26:05;8.00;;;3.50;;
72771;SDS011;60894;42.544;1.516;2023-07-13T00:28:34;7.05;;;3.03;;
72771;SDS011;60894;42.544;1.516;2023-07-13T00:31:01;6.45;;;3.10;;
72771;SDS011;60894;42.544;1.516;2023-07-13T00:33:28;6.00;;;2.97;;
72771;SDS011;60894;42.544;1.516;2023-07-13T00:35:57;7.13;;;3.40;;
72771;SDS011;60894;42.544;1.516;2023-07-13T00:38:24;8.10;;;3.10;;
72771;SDS011;60894;42.544;1.516;2023-07-13T00:40:51;7.53;;;3.10;;
72771;SDS011;60894;42.544;1.516;2023-07-13T00:43:20;6.78;;;3.03;;
72771;SDS011;60894;42.544;1.516;2023-07-13T00:48:41;7.20;;;3.10;;
72771;SDS011;60894;42.544;1.516;2023-07-13T00:51:13;7.45;;;3.20;;
72771;SDS011;60894;42.544;1.516;2023-07-13T00:53:41;7.50;;;3.30;;
72771;SDS011;60894;42.544;1.516;2023-07-13T00:56:08;7.28;;;3.10;;
72771;SDS011;60894;42.544;1.516;2023-07-13T00:58:36;6.95;;;3.15;;
72771;SDS011;60894;42.544;1.516;2023-07-13T01:01:03;7.53;;;3.40;;
72771;SDS011;60894;42.544;1.516;2023-07-13T01:03:30;8.38;;;3.10;;
72771;SDS011;60894;42.544;1.516;2023-07-13T01:05:57;7.75;;;3.30;;
72771;SDS011;60894;42.544;1.516;2023-07-13T01:08:26;8.27;;;3.30;;
72771;SDS011;60894;42.544;1.516;2023-07-13T01:10:53;7.47;;;3.15;;
72771;SDS011;60894;42.544;1.516;2023-07-13T01:13:21;9.53;;;3.50;;
72771;SDS011;60894;42.544;1.516;2023-07-13T01:15:49;8.77;;;3.72;;
72771;SDS011;60894;42.544;1.516;2023-07-13T01:18:18;6.03;;;2.97;;
72771;SDS011;60894;42.544;1.516;2023-07-13T01:20:50;8.30;;;4.00;;
72771;SDS011;60894;42.544;1.516;2023-07-13T01:23:17;9.80;;;3.70;;
72771;SDS011;60894;42.544;1.516;2023-07-13T01:25:45;9.43;;;3.20;;
72771;SDS011;60894;42.544;1.516;2023-07-13T01:28:12;7.70;;;3.38;;
72771;SDS011;60894;42.544;1.516;2023-07-13T01:30:39;7.25;;;3.33;;
72771;SDS011;60894;42.544;1.516;2023-07-13T01:33:08;9.07;;;3.60;;
72771;SDS011;60894;42.544;1.516;2023-07-13T01:35:35;13.40;;;3.80;;
72771;SDS011;60894;42.544;1.516;2023-07-13T01:38:04;9.33;;;3.43;;
72771;SDS011;60894;42.544;1.516;2023-07-13T01:40:33;7.72;;;3.20;;
72771;SDS011;60894;42.544;1.516;2023-07-13T01:43:01;9.50;;;3.42;;
72771;SDS011;60894;42.544;1.516;2023-07-13T01:45:28;8.00;;;3.33;;
72771;SDS011;60894;42.544;1.516;2023-07-13T01:47:55;7.25;;;3.28;;
72771;SDS011;60894;42.544;1.516;2023-07-13T01:50:23;8.03;;;3.60;;
72771;SDS011;60894;42.544;1.516;2023-07-13T01:52:50;8.30;;;3.25;;
72771;SDS011;60894;42.544;1.516;2023-07-13T01:55:18;7.40;;;3.20;;
72771;SDS011;60894;42.544;1.516;2023-07-13T01:57:45;9.35;;;3.53;;
72771;SDS011;60894;42.544;1.516;2023-07-13T02:00:13;8.20;;;3.60;;
72771;SDS011;60894;42.544;1.516;2023-07-13T02:02:40;10.00;;;4.20;;
72771;SDS011;60894;42.544;1.516;2023-07-13T02:05:08;10.50;;;3.80;;
72771;SDS011;60894;42.544;1.516;2023-07-13T02:07:35;8.05;;;3.58;;
72771;SDS011;60894;42.544;1.516;2023-07-13T02:10:02;8.80;;;3.90;;
72771;SDS011;60894;42.544;1.516;2023-07-13T02:12:30;8.02;;;3.45;;
72771;SDS011;60894;42.544;1.516;2023-07-13T02:14:57;8.60;;;3.40;;
72771;SDS011;60894;42.544;1.516;2023-07-13T02:17:25;7.15;;;3.28;;
72771;SDS011;60894;42.544;1.516;2023-07-13T02:19:53;8.38;;;3.60;;
72771;SDS011;60894;42.544;1.516;2023-07-13T02:22:20;7.85;;;3.45;;
72771;SDS011;60894;42.544;1.516;2023-07-13T02:24:48;7.18;;;3.75;;
72771;SDS011;60894;42.544;1.516;2023-07-13T02:27:15;8.13;;;4.07;;
72771;SDS011;60894;42.544;1.516;2023-07-13T02:29:43;9.13;;;3.95;;
72771;SDS011;60894;42.544;1.516;2023-07-13T02:32:10;8.25;;;3.95;;
72771;SDS011;60894;42.544;1.516;2023-07-13T02:34:37;10.60;;;4.00;;
72771;SDS011;60894;42.544;1.516;2023-07-13T02:37:04;9.63;;;3.80;;
72771;SDS011;60894;42.544;1.516;2023-07-13T02:39:31;8.23;;;3.93;;
72771;SDS011;60894;42.544;1.516;2023-07-13T02:41:58;8.13;;;3.83;;
72771;SDS011;60894;42.544;1.516;2023-07-13T02:44:26;8.23;;;3.92;;
72771;SDS011;60894;42.544;1.516;2023-07-13T02:46:54;8.05;;;3.83;;
72771;SDS011;60894;42.544;1.516;2023-07-13T02:49:21;7.35;;;3.47;;
72771;SDS011;60894;42.544;1.516;2023-07-13T02:51:48;9.90;;;4.10;;
72771;SDS011;60894;42.544;1.516;2023-07-13T02:54:15;8.63;;;3.50;;
72771;SDS011;60894;42.544;1.516;2023-07-13T02:56:42;8.55;;;3.65;;
72771;SDS011;60894;42.544;1.516;2023-07-13T02:59:09;8.18;;;3.80;;
72771;SDS011;60894;42.544;1.516;2023-07-13T03:01:37;8.10;;;3.53;;
72771;SDS011;60894;42.544;1.516;2023-07-13T03:04:05;9.07;;;3.70;;
72771;SDS011;60894;42.544;1.516;2023-07-13T03:06:32;8.73;;;3.75;;
72771;SDS011;60894;42.544;1.516;2023-07-13T03:09:00;7.75;;;3.55;;
72771;SDS011;60894;42.544;1.516;2023-07-13T03:11:27;10.20;;;3.90;;
72771;SDS011;60894;42.544;1.516;2023-07-13T03:13:54;7.65;;;3.72;;
72771;SDS011;60894;42.544;1.516;2023-07-13T03:16:21;7.63;;;3.57;;
72771;SDS011;60894;42.544;1.516;2023-07-13T03:18:48;8.35;;;3.72;;
72771;SDS011;60894;42.544;1.516;2023-07-13T03:21:17;8.80;;;3.80;;
72771;SDS011;60894;42.544;1.516;2023-07-13T03:23:44;8.20;;;3.90;;
72771;SDS011;60894;42.544;1.516;2023-07-13T03:26:11;9.40;;;3.70;;
72771;SDS011;60894;42.544;1.516;2023-07-13T03:28:39;7.27;;;3.50;;
72771;SDS011;60894;42.544;1.516;2023-07-13T03:31:08;8.57;;;4.10;;
72771;SDS011;60894;42.544;1.516;2023-07-13T03:33:36;8.90;;;3.60;;
72771;SDS011;60894;42.544;1.516;2023-07-13T03:36:03;8.00;;;3.90;;
72771;SDS011;60894;42.544;1.516;2023-07-13T03:38:33;8.40;;;3.67;;
72771;SDS011;60894;42.544;1.516;2023-07-13T03:41:00;8.67;;;3.80;;
72771;SDS011;60894;42.544;1.516;2023-07-13T03:43:27;8.98;;;3.85;;
72771;SDS011;60894;42.544;1.516;2023-07-13T03:45:55;10.00;;;3.92;;
72771;SDS011;60894;42.544;1.516;2023-07-13T03:48:22;8.60;;;4.10;;
72771;SDS011;60894;42.544;1.516;2023-07-13T03:50:49;9.30;;;3.72;;
72771;SDS011;60894;42.544;1.516;2023-07-13T03:53:16;8.60;;;3.70;;
72771;SDS011;60894;42.544;1.516;2023-07-13T03:55:45;8.52;;;4.10;;
72771;SDS011;60894;42.544;1.516;2023-07-13T03:58:25;7.65;;;3.90;;
72771;SDS011;60894;42.544;1.516;2023-07-13T04:00:54;8.85;;;3.97;;
72771;SDS011;60894;42.544;1.516;2023-07-13T04:03:22;8.77;;;4.30;;
72771;SDS011;60894;42.544;1.516;2023-07-13T04:05:49;7.83;;;3.63;;
72771;SDS011;60894;42.544;1.516;2023-07-13T04:08:16;8.98;;;3.80;;
72771;SDS011;60894;42.544;1.516;2023-07-13T04:10:45;8.68;;;4.13;;
72771;SDS011;60894;42.544;1.516;2023-07-13T04:13:11;9.20;;;4.53;;
72771;SDS011;60894;42.544;1.516;2023-07-13T04:15:40;8.80;;;3.80;;
72771;SDS011;60894;42.544;1.516;2023-07-13T04:18:06;8.23;;;4.20;;
72771;SDS011;60894;42.544;1.516;2023-07-13T04:20:34;11.30;;;4.10;;
72771;SDS011;60894;42.544;1.516;2023-07-13T04:23:01;10.27;;;3.70;;
72771;SDS011;60894;42.544;1.516;2023-07-13T04:25:28;7.85;;;4.00;;
72771;SDS011;60894;42.544;1.516;2023-07-13T04:27:56;7.53;;;3.78;;
72771;SDS011;60894;42.544;1.516;2023-07-13T04:30:23;9.70;;;4.03;;
72771;SDS011;60894;42.544;1.516;2023-07-13T04:32:51;9.60;;;4.32;;
72771;SDS011;60894;42.544;1.516;2023-07-13T04:35:19;9.52;;;4.10;;
72771;SDS011;60894;42.544;1.516;2023-07-13T04:37:47;8.10;;;3.92;;
72771;SDS011;60894;42.544;1.516;2023-07-13T04:40:15;8.70;;;3.83;;
72771;SDS011;60894;42.544;1.516;2023-07-13T04:42:43;9.33;;;4.50;;
72771;SDS011;60894;42.544;1.516;2023-07-13T04:45:12;9.30;;;4.10;;
72771;SDS011;60894;42.544;1.516;2023-07-13T04:47:39;9.20;;;3.55;;
72771;SDS011;60894;42.544;1.516;2023-07-13T04:50:07;9.30;;;4.55;;
72771;SDS011;60894;42.544;1.516;2023-07-13T04:52:36;9.75;;;4.00;;
72771;SDS011;60894;42.544;1.516;2023-07-13T04:55:03;8.43;;;4.03;;
72771;SDS011;60894;42.544;1.516;2023-07-13T04:57:31;8.77;;;3.72;;
72771;SDS011;60894;42.544;1.516;2023-07-13T04:59:59;10.68;;;4.57;;
72771;SDS011;60894;42.544;1.516;2023-07-13T05:02:27;9.48;;;4.10;;
72771;SDS011;60894;42.544;1.516;2023-07-13T05:04:56;9.70;;;4.32;;
72771;SDS011;60894;42.544;1.516;2023-07-13T05:07:23;8.97;;;4.07;;
72771;SDS011;60894;42.544;1.516;2023-07-13T05:09:51;9.15;;;4.30;;
72771;SDS011;60894;42.544;1.516;2023-07-13T05:12:19;10.30;;;4.00;;
72771;SDS011;60894;42.544;1.516;2023-07-13T05:14:46;10.73;;;4.20;;
72771;SDS011;60894;42.544;1.516;2023-07-13T05:17:14;9.13;;;3.97;;
72771;SDS011;60894;42.544;1.516;2023-07-13T05:19:42;9.57;;;4.20;;
72771;SDS011;60894;42.544;1.516;2023-07-13T05:22:09;9.35;;;4.38;;
72771;SDS011;60894;42.544;1.516;2023-07-13T05:24:36;8.80;;;4.28;;
72771;SDS011;60894;42.544;1.516;2023-07-13T05:27:04;9.15;;;4.15;;
72771;SDS011;60894;42.544;1.516;2023-07-13T05:29:31;9.43;;;4.30;;
72771;SDS011;60894;42.544;1.516;2023-07-13T05:31:58;9.70;;;3.93;;
72771;SDS011;60894;42.544;1.516;2023-07-13T05:34:25;9.35;;;4.70;;
72771;SDS011;60894;42.544;1.516;2023-07-13T05:36:54;11.82;;;5.57;;
72771;SDS011;60894;42.544;1.516;2023-07-13T05:39:21;10.60;;;6.72;;
72771;SDS011;60894;42.544;1.516;2023-07-13T05:41:48;12.25;;;6.75;;
72771;SDS011;60894;42.544;1.516;2023-07-13T05:44:15;18.67;;;10.93;;
72771;SDS011;60894;42.544;1.516;2023-07-13T05:46:42;17.35;;;12.18;;
72771;SDS011;60894;42.544;1.516;2023-07-13T05:49:09;15.25;;;11.82;;
72771;SDS011;60894;42.544;1.516;2023-07-13T05:51:36;12.50;;;6.20;;
72771;SDS011;60894;42.544;1.516;2023-07-13T05:54:04;12.40;;;5.63;;
72771;SDS011;60894;42.544;1.516;2023-07-13T05:56:31;12.27;;;5.70;;
72771;SDS011;60894;42.544;1.516;2023-07-13T05:58:58;11.45;;;6.10;;
72771;SDS011;60894;42.544;1.516;2023-07-13T06:01:25;15.52;;;6.30;;
72771;SDS011;60894;42.544;1.516;2023-07-13T06:03:52;12.45;;;5.88;;
72771;SDS011;60894;42.544;1.516;2023-07-13T06:06:19;11.43;;;6.35;;
72771;SDS011;60894;42.544;1.516;2023-07-13T06:08:47;11.53;;;5.27;;
72771;SDS011;60894;42.544;1.516;2023-07-13T06:11:16;11.63;;;5.30;;
72771;SDS011;60894;42.544;1.516;2023-07-13T06:13:45;11.82;;;5.32;;
72771;SDS011;60894;42.544;1.516;2023-07-13T06:16:12;11.57;;;5.40;;
72771;SDS011;60894;42.544;1.516;2023-07-13T06:18:39;11.95;;;5.88;;
72771;SDS011;60894;42.544;1.516;2023-07-13T06:21:07;11.50;;;5.47;;
72771;SDS011;60894;42.544;1.516;2023-07-13T06:23:35;13.15;;;5.95;;
72771;SDS011;60894;42.544;1.516;2023-07-13T06:26:03;11.23;;;5.70;;
72771;SDS011;60894;42.544;1.516;2023-07-13T06:28:31;9.60;;;4.53;;
72771;SDS011;60894;42.544;1.516;2023-07-13T06:30:59;9.68;;;4.68;;
72771;SDS011;60894;42.544;1.516;2023-07-13T06:33:26;9.63;;;4.70;;
72771;SDS011;60894;42.544;1.516;2023-07-13T06:35:53;10.48;;;5.00;;
72771;SDS011;60894;42.544;1.516;2023-07-13T06:38:21;11.48;;;6.00;;
72771;SDS011;60894;42.544;1.516;2023-07-13T06:40:48;11.10;;;5.32;;
72771;SDS011;60894;42.544;1.516;2023-07-13T06:43:15;12.13;;;5.05;;
72771;SDS011;60894;42.544;1.516;2023-07-13T06:45:44;11.07;;;5.07;;
72771;SDS011;60894;42.544;1.516;2023-07-13T06:48:12;9.32;;;4.45;;
72771;SDS011;60894;42.544;1.516;2023-07-13T06:50:41;11.50;;;5.45;;
72771;SDS011;60894;42.544;1.516;2023-07-13T06:53:08;12.70;;;6.03;;
72771;SDS011;60894;42.544;1.516;2023-07-13T06:55:35;12.60;;;5.68;;
72771;SDS011;60894;42.544;1.516;2023-07-13T06:58:02;17.33;;;7.00;;
72771;SDS011;60894;42.544;1.516;2023-07-13T07:00:29;15.20;;;5.93;;
72771;SDS011;60894;42.544;1.516;2023-07-13T07:02:58;20.52;;;5.50;;
72771;SDS011;60894;42.544;1.516;2023-07-13T07:05:25;11.98;;;5.30;;
72771;SDS011;60894;42.544;1.516;2023-07-13T07:07:53;13.77;;;5.45;;
72771;SDS011;60894;42.544;1.516;2023-07-13T07:10:21;12.50;;;5.03;;
72771;SDS011;60894;42.544;1.516;2023-07-13T07:12:48;15.65;;;6.13;;
72771;SDS011;60894;42.544;1.516;2023-07-13T07:15:15;15.63;;;5.00;;
72771;SDS011;60894;42.544;1.516;2023-07-13T07:17:43;10.50;;;4.68;;
72771;SDS011;60894;42.544;1.516;2023-07-13T07:20:11;12.43;;;5.05;;
72771;SDS011;60894;42.544;1.516;2023-07-13T07:22:38;11.73;;;5.47;;
72771;SDS011;60894;42.544;1.516;2023-07-13T07:25:05;11.75;;;4.95;;
72771;SDS011;60894;42.544;1.516;2023-07-13T07:27:33;12.20;;;4.82;;
72771;SDS011;60894;42.544;1.516;2023-07-13T07:30:00;12.70;;;5.57;;
72771;SDS011;60894;42.544;1.516;2023-07-13T07:32:28;10.05;;;4.63;;
72771;SDS011;60894;42.544;1.516;2023-07-13T07:34:55;9.83;;;4.17;;
72771;SDS011;60894;42.544;1.516;2023-07-13T07:37:24;10.30;;;4.78;;
72771;SDS011;60894;42.544;1.516;2023-07-13T07:39:51;10.50;;;4.55;;
72771;SDS011;60894;42.544;1.516;2023-07-13T07:42:18;10.18;;;4.68;;
72771;SDS011;60894;42.544;1.516;2023-07-13T07:44:44;9.60;;;4.50;;
72771;SDS011;60894;42.544;1.516;2023-07-13T07:47:11;9.47;;;4.30;;
72771;SDS011;60894;42.544;1.516;2023-07-13T07:49:38;11.48;;;4.82;;
72771;SDS011;60894;42.544;1.516;2023-07-13T07:52:06;8.65;;;4.40;;
72771;SDS011;60894;42.544;1.516;2023-07-13T07:54:35;8.30;;;4.40;;
72771;SDS011;60894;42.544;1.516;2023-07-13T07:57:02;11.23;;;4.32;;
72771;SDS011;60894;42.544;1.516;2023-07-13T07:59:29;11.23;;;5.00;;
72771;SDS011;60894;42.544;1.516;2023-07-13T08:01:56;8.13;;;4.00;;
72771;SDS011;60894;42.544;1.516;2023-07-13T08:04:23;10.77;;;4.45;;
72771;SDS011;60894;42.544;1.516;2023-07-13T08:06:50;11.43;;;4.90;;
72771;SDS011;60894;42.544;1.516;2023-07-13T08:09:17;9.70;;;4.43;;
72771;SDS011;60894;42.544;1.516;2023-07-13T08:11:45;11.43;;;4.20;;
72771;SDS011;60894;42.544;1.516;2023-07-13T08:14:12;11.25;;;4.20;;
72771;SDS011;60894;42.544;1.516;2023-07-13T08:16:39;9.18;;;4.13;;
72771;SDS011;60894;42.544;1.516;2023-07-13T08:19:06;11.07;;;4.75;;
72771;SDS011;60894;42.544;1.516;2023-07-13T08:21:33;9.43;;;3.90;;
72771;SDS011;60894;42.544;1.516;2023-07-13T08:24:00;8.87;;;3.47;;
72771;SDS011;60894;42.544;1.516;2023-07-13T08:26:27;8.95;;;3.25;;
72771;SDS011;60894;42.544;1.516;2023-07-13T08:28:55;9.57;;;3.13;;
72771;SDS011;60894;42.544;1.516;2023-07-13T08:31:22;7.07;;;3.33;;
72771;SDS011;60894;42.544;1.516;2023-07-13T08:33:49;7.75;;;3.47;;
72771;SDS011;60894;42.544;1.516;2023-07-13T08:36:16;6.70;;;2.63;;
72771;SDS011;60894;42.544;1.516;2023-07-13T08:38:43;8.52;;;3.10;;
72771;SDS011;60894;42.544;1.516;2023-07-13T08:41:11;8.43;;;2.75;;
72771;SDS011;60894;42.544;1.516;2023-07-13T08:43:41;5.78;;;2.75;;
72771;SDS011;60894;42.544;1.516;2023-07-13T08:46:13;9.82;;;2.72;;
72771;SDS011;60894;42.544;1.516;2023-07-13T08:48:45;6.43;;;2.97;;
72771;SDS011;60894;42.544;1.516;2023-07-13T08:51:19;7.88;;;3.70;;
72771;SDS011;60894;42.544;1.516;2023-07-13T08:53:54;7.05;;;3.15;;
72771;SDS011;60894;42.544;1.516;2023-07-13T08:56:25;9.40;;;2.60;;
72771;SDS011;60894;42.544;1.516;2023-07-13T08:58:55;8.38;;;2.95;;
72771;SDS011;60894;42.544;1.516;2023-07-13T09:01:28;7.37;;;2.90;;
72771;SDS011;60894;42.544;1.516;2023-07-13T09:03:59;8.85;;;3.10;;
72771;SDS011;60894;42.544;1.516;2023-07-13T09:06:35;7.05;;;3.08;;
72771;SDS011;60894;42.544;1.516;2023-07-13T09:09:10;7.00;;;2.70;;
72771;SDS011;60894;42.544;1.516;2023-07-13T09:11:49;8.32;;;2.70;;
72771;SDS011;60894;42.544;1.516;2023-07-13T09:17:13;9.40;;;2.65;;
72771;SDS011;60894;42.544;1.516;2023-07-13T09:19:43;8.02;;;2.60;;
72771;SDS011;60894;42.544;1.516;2023-07-13T09:22:16;8.05;;;3.20;;
72771;SDS011;60894;42.544;1.516;2023-07-13T09:24:50;5.53;;;2.35;;
72771;SDS011;60894;42.544;1.516;2023-07-13T09:27:26;7.80;;;2.80;;
72771;SDS011;60894;42.544;1.516;2023-07-13T09:29:57;6.50;;;2.50;;
72771;SDS011;60894;42.544;1.516;2023-07-13T09:32:35;6.63;;;2.50;;
72771;SDS011;60894;42.544;1.516;2023-07-13T09:35:05;9.93;;;2.90;;
72771;SDS011;60894;42.544;1.516;2023-07-13T09:37:37;6.53;;;2.70;;
72771;SDS011;60894;42.544;1.516;2023-07-13T09:40:08;7.63;;;3.03;;
72771;SDS011;60894;42.544;1.516;2023-07-13T09:42:39;7.15;;;2.67;;
72771;SDS011;60894;42.544;1.516;2023-07-13T09:45:07;5.25;;;2.42;;
72771;SDS011;60894;42.544;1.516;2023-07-13T09:47:39;6.10;;;2.50;;
72771;SDS011;60894;42.544;1.516;2023-07-13T09:50:08;7.07;;;2.28;;
72771;SDS011;60894;42.544;1.516;2023-07-13T09:52:42;8.30;;;2.40;;
72771;SDS011;60894;42.544;1.516;2023-07-13T09:57:55;8.07;;;2.42;;
72771;SDS011;60894;42.544;1.516;2023-07-13T10:00:23;5.45;;;2.22;;
72771;SDS011;60894;42.544;1.516;2023-07-13T10:03:00;7.80;;;2.53;;
72771;SDS011;60894;42.544;1.516;2023-07-13T10:05:36;8.13;;;3.03;;
72771;SDS011;60894;42.544;1.516;2023-07-13T10:08:05;12.57;;;3.67;;
72771;SDS011;60894;42.544;1.516;2023-07-13T10:10:32;10.75;;;3.58;;
72771;SDS011;60894;42.544;1.516;2023-07-13T10:13:01;8.57;;;3.53;;
72771;SDS011;60894;42.544;1.516;2023-07-13T10:15:29;14.80;;;3.45;;
72771;SDS011;60894;42.544;1.516;2023-07-13T10:17:57;8.07;;;2.80;;
72771;SDS011;60894;42.544;1.516;2023-07-13T10:20:25;7.05;;;2.30;;
72771;SDS011;60894;42.544;1.516;2023-07-13T10:22:54;5.97;;;2.47;;
72771;SDS011;60894;42.544;1.516;2023-07-13T10:25:25;7.68;;;2.38;;
72771;SDS011;60894;42.544;1.516;2023-07-13T10:27:55;6.93;;;3.03;;
72771;SDS011;60894;42.544;1.516;2023-07-13T10:30:28;9.67;;;2.40;;
72771;SDS011;60894;42.544;1.516;2023-07-13T10:33:00;5.25;;;2.30;;
72771;SDS011;60894;42.544;1.516;2023-07-13T10:35:30;5.72;;;2.33;;
72771;SDS011;60894;42.544;1.516;2023-07-13T10:37:59;8.43;;;2.60;;
72771;SDS011;60894;42.544;1.516;2023-07-13T10:40:33;5.05;;;2.17;;
72771;SDS011;60894;42.544;1.516;2023-07-13T10:43:04;8.10;;;2.30;;
72771;SDS011;60894;42.544;1.516;2023-07-13T10:45:35;8.30;;;2.58;;
72771;SDS011;60894;42.544;1.516;2023-07-13T10:48:03;7.82;;;2.78;;
72771;SDS011;60894;42.544;1.516;2023-07-13T10:50:34;6.88;;;2.70;;
72771;SDS011;60894;42.544;1.516;2023-07-13T10:53:16;6.40;;;2.30;;
72771;SDS011;60894;42.544;1.516;2023-07-13T10:55:54;6.77;;;2.67;;
72771;SDS011;60894;42.544;1.516;2023-07-13T10:58:28;5.00;;;2.00;;
72771;SDS011;60894;42.544;1.516;2023-07-13T11:01:02;5.10;;;2.50;;
72771;SDS011;60894;42.544;1.516;2023-07-13T11:03:47;6.13;;;2.80;;
72771;SDS011;60894;42.544;1.516;2023-07-13T11:06:28;6.22;;;2.50;;
72771;SDS011;60894;42.544;1.516;2023-07-13T11:09:03;6.77;;;2.63;;
72771;SDS011;60894;42.544;1.516;2023-07-13T11:11:45;6.53;;;2.65;;
72771;SDS011;60894;42.544;1.516;2023-07-13T11:14:31;5.93;;;2.25;;
72771;SDS011;60894;42.544;1.516;2023-07-13T11:20:08;5.90;;;2.30;;
72771;SDS011;60894;42.544;1.516;2023-07-13T11:22:48;5.87;;;2.30;;
72771;SDS011;60894;42.544;1.516;2023-07-13T11:25:26;6.22;;;2.15;;
72771;SDS011;60894;42.544;1.516;2023-07-13T11:28:14;5.28;;;2.20;;
72771;SDS011;60894;42.544;1.516;2023-07-13T11:30:46;8.00;;;2.47;;
72771;SDS011;60894;42.544;1.516;2023-07-13T11:33:16;4.72;;;2.10;;
72771;SDS011;60894;42.544;1.516;2023-07-13T11:35:46;5.60;;;2.17;;
72771;SDS011;60894;42.544;1.516;2023-07-13T11:38:20;6.03;;;2.00;;
72771;SDS011;60894;42.544;1.516;2023-07-13T11:40:51;4.63;;;1.90;;
72771;SDS011;60894;42.544;1.516;2023-07-13T11:43:20;2.92;;;1.50;;
72771;SDS011;60894;42.544;1.516;2023-07-13T11:45:49;4.47;;;1.88;;
72771;SDS011;60894;42.544;1.516;2023-07-13T11:48:20;4.60;;;1.60;;
72771;SDS011;60894;42.544;1.516;2023-07-13T11:50:50;5.03;;;1.63;;
72771;SDS011;60894;42.544;1.516;2023-07-13T11:53:21;4.78;;;1.50;;
72771;SDS011;60894;42.544;1.516;2023-07-13T11:55:48;3.70;;;1.40;;
72771;SDS011;60894;42.544;1.516;2023-07-13T11:58:17;4.18;;;1.70;;
72771;SDS011;60894;42.544;1.516;2023-07-13T12:00:49;5.03;;;1.60;;
72771;SDS011;60894;42.544;1.516;2023-07-13T12:03:18;2.78;;;1.45;;
72771;SDS011;60894;42.544;1.516;2023-07-13T12:05:56;4.10;;;1.70;;
72771;SDS011;60894;42.544;1.516;2023-07-13T12:08:28;3.80;;;1.38;;
72771;SDS011;60894;42.544;1.516;2023-07-13T12:11:03;5.15;;;1.70;;
72771;SDS011;60894;42.544;1.516;2023-07-13T12:13:37;4.03;;;1.70;;
72771;SDS011;60894;42.544;1.516;2023-07-13T12:16:11;5.47;;;1.50;;
72771;SDS011;60894;42.544;1.516;2023-07-13T12:18:41;3.95;;;1.70;;
72771;SDS011;60894;42.544;1.516;2023-07-13T12:21:12;5.20;;;1.63;;
72771;SDS011;60894;42.544;1.516;2023-07-13T12:23:42;6.05;;;1.70;;
72771;SDS011;60894;42.544;1.516;2023-07-13T12:26:10;4.73;;;1.70;;
72771;SDS011;60894;42.544;1.516;2023-07-13T12:28:38;4.15;;;1.52;;
72771;SDS011;60894;42.544;1.516;2023-07-13T12:31:19;4.57;;;1.60;;
72771;SDS011;60894;42.544;1.516;2023-07-13T12:33:55;4.20;;;1.55;;
72771;SDS011;60894;42.544;1.516;2023-07-13T12:36:23;3.78;;;1.83;;
72771;SDS011;60894;42.544;1.516;2023-07-13T12:38:52;5.57;;;1.80;;
72771;SDS011;60894;42.544;1.516;2023-07-13T12:41:19;4.45;;;1.80;;
72771;SDS011;60894;42.544;1.516;2023-07-13T12:43:48;5.53;;;2.00;;
72771;SDS011;60894;42.544;1.516;2023-07-13T12:46:16;5.32;;;1.98;;
72771;SDS011;60894;42.544;1.516;2023-07-13T12:48:48;8.20;;;2.80;;
72771;SDS011;60894;42.544;1.516;2023-07-13T12:51:17;7.33;;;3.00;;
72771;SDS011;60894;42.544;1.516;2023-07-13T12:53:48;6.55;;;1.85;;
72771;SDS011;60894;42.544;1.516;2023-07-13T12:56:21;7.03;;;2.10;;
72771;SDS011;60894;42.544;1.516;2023-07-13T12:58:51;5.38;;;1.92;;
72771;SDS011;60894;42.544;1.516;2023-07-13T13:01:25;4.97;;;1.70;;
72771;SDS011;60894;42.544;1.516;2023-07-13T13:03:54;4.80;;;1.70;;
72771;SDS011;60894;42.544;1.516;2023-07-13T13:06:22;6.05;;;2.30;;
72771;SDS011;60894;42.544;1.516;2023-07-13T13:08:51;5.07;;;1.80;;
72771;SDS011;60894;42.544;1.516;2023-07-13T13:11:22;5.88;;;1.90;;
72771;SDS011;60894;42.544;1.516;2023-07-13T13:13:51;4.35;;;2.05;;
72771;SDS011;60894;42.544;1.516;2023-07-13T13:16:20;4.93;;;1.80;;
72771;SDS011;60894;42.544;1.516;2023-07-13T13:18:48;8.23;;;1.88;;
72771;SDS011;60894;42.544;1.516;2023-07-13T13:21:17;4.97;;;1.90;;
72771;SDS011;60894;42.544;1.516;2023-07-13T13:23:44;5.10;;;1.90;;
72771;SDS011;60894;42.544;1.516;2023-07-13T13:26:12;5.22;;;1.80;;
72771;SDS011;60894;42.544;1.516;2023-07-13T13:28:42;6.63;;;2.17;;
72771;SDS011;60894;42.544;1.516;2023-07-13T13:31:10;6.25;;;2.20;;
72771;SDS011;60894;42.544;1.516;2023-07-13T13:33:38;5.97;;;2.13;;
72771;SDS011;60894;42.544;1.516;2023-07-13T13:36:11;5.18;;;2.20;;
72771;SDS011;60894;42.544;1.516;2023-07-13T13:38:40;7.30;;;2.00;;
72771;SDS011;60894;42.544;1.516;2023-07-13T13:41:09;3.53;;;1.80;;
72771;SDS011;60894;42.544;1.516;2023-07-13T13:43:38;4.47;;;1.80;;
72771;SDS011;60894;42.544;1.516;2023-07-13T13:46:12;5.82;;;2.40;;
72771;SDS011;60894;42.544;1.516;2023-07-13T13:48:41;6.38;;;2.20;;
72771;SDS011;60894;42.544;1.516;2023-07-13T13:51:13;6.35;;;2.13;;
72771;SDS011;60894;42.544;1.516;2023-07-13T13:53:42;5.73;;;2.30;;
72771;SDS011;60894;42.544;1.516;2023-07-13T13:56:10;4.97;;;1.90;;
72771;SDS011;60894;42.544;1.516;2023-07-13T13:58:37;6.88;;;2.30;;
72771;SDS011;60894;42.544;1.516;2023-07-13T14:01:04;3.95;;;1.90;;
72771;SDS011;60894;42.544;1.516;2023-07-13T14:03:38;5.78;;;2.03;;
72771;SDS011;60894;42.544;1.516;2023-07-13T14:06:07;5.97;;;2.20;;
72771;SDS011;60894;42.544;1.516;2023-07-13T14:08:35;4.57;;;2.30;;
72771;SDS011;60894;42.544;1.516;2023-07-13T14:11:02;5.63;;;2.25;;
72771;SDS011;60894;42.544;1.516;2023-07-13T14:13:31;8.30;;;2.53;;
72771;SDS011;60894;42.544;1.516;2023-07-13T14:16:02;4.93;;;2.10;;
72771;SDS011;60894;42.544;1.516;2023-07-13T14:18:33;6.40;;;2.00;;
72771;SDS011;60894;42.544;1.516;2023-07-13T14:21:01;5.82;;;2.10;;
72771;SDS011;60894;42.544;1.516;2023-07-13T14:23:28;6.75;;;2.10;;
72771;SDS011;60894;42.544;1.516;2023-07-13T14:25:55;4.72;;;2.20;;
72771;SDS011;60894;42.544;1.516;2023-07-13T14:28:23;6.97;;;2.15;;
72771;SDS011;60894;42.544;1.516;2023-07-13T14:30:53;4.80;;;2.20;;
72771;SDS011;60894;42.544;1.516;2023-07-13T14:33:21;7.40;;;2.35;;
72771;SDS011;60894;42.544;1.516;2023-07-13T14:35:49;7.07;;;2.15;;
72771;SDS011;60894;42.544;1.516;2023-07-13T14:38:18;6.32;;;2.28;;
72771;SDS011;60894;42.544;1.516;2023-07-13T14:40:46;4.47;;;2.30;;
72771;SDS011;60894;42.544;1.516;2023-07-13T14:43:14;6.57;;;2.00;;
72771;SDS011;60894;42.544;1.516;2023-07-13T14:45:44;8.93;;;2.20;;
72771;SDS011;60894;42.544;1.516;2023-07-13T14:48:15;8.63;;;2.50;;
72771;SDS011;60894;42.544;1.516;2023-07-13T14:50:45;6.57;;;2.60;;
72771;SDS011;60894;42.544;1.516;2023-07-13T14:53:13;5.00;;;2.40;;
72771;SDS011;60894;42.544;1.516;2023-07-13T14:55:42;5.87;;;2.40;;
72771;SDS011;60894;42.544;1.516;2023-07-13T14:58:09;8.88;;;2.50;;
72771;SDS011;60894;42.544;1.516;2023-07-13T15:00:36;7.65;;;2.58;;
72771;SDS011;60894;42.544;1.516;2023-07-13T15:03:03;7.97;;;2.35;;
72771;SDS011;60894;42.544;1.516;2023-07-13T15:05:31;5.80;;;2.70;;
72771;SDS011;60894;42.544;1.516;2023-07-13T15:07:59;6.57;;;2.27;;